Airport Name : Campbell AAF

Other Name : Campbell AAF

ICAO : KHOP

IATA : HOP

FAA : HOP

Latitude : 36.668567

Longitude : -87.496183

Country : United States

Local Date and Time : 8/22/2018 12:46:00 AM

 

TAF (Terminal Aerodrome Forecast)

TAF KHOP 220000Z 2200/2306 30009KT 9999 SCT020 BKN035 QNH2992INS BECMG 2205/2206 33006KT 4800 BR BKN020 QNH2998INS BECMG 2213/2214 33010G15KT 9999 NSW SCT025 QNH3006INS BECMG 2223/2224 34006KT 9999 BKN040 QNH3006INS TX27/2218Z TN18/2210Z

 

METAR (METeorological Aerodrome Report)

KHOP 220456Z AUTO 27004KT 10SM BKN048 21/19 A3004 RMK AO2 SLP170 T02080187

KHOP 220356Z AUTO 28005KT 10SM CLR 21/19 A3003 RMK AO2 SLP166 T02130185

KHOP 220256Z AUTO 27004KT 10SM CLR 22/19 A3004 RMK AO2 SLP169 T02170185 52024

KHOP 220156Z AUTO 30010KT 10SM CLR 23/19 A3002 RMK AO2 SLP163 T02280185